Time;durP1;ratioP1;P1;durP2;ratioP2;P2;SDS_P1;SDS_P2;PMS_P1;PMS_P2;Temp;Humidity;BMP_temperature;BMP_pressure;BME280_temperature;BME280_humidity;BME280_pressure;Samples;Min_cycle;Max_cycle;Signal;HPM_P1;HPM_P2
2022/04/05 00:05:28;;;;;;;3.70;3.40;;;9.20;99.90;;;;;;4775086;29;20506;-84
2022/04/05 00:08:40;;;;;;;4.03;3.73;;;9.20;99.90;;;;;;4740960;30;20475;-84
2022/04/05 00:15:45;;;;;;;7.30;3.40;;;9.20;99.90;;;;;;4791716;29;20576;-81
2022/04/05 00:19:12;;;;;;;;;;;;;;;;;;;;;
2022/04/05 00:22:24;;;;;;;3.40;3.10;;;9.20;99.90;;;;;;4721694;30;20468;-83
2022/04/05 00:25:31;;;;;;;3.80;3.50;;;9.20;99.90;;;;;;4731452;30;20468;-85
2022/04/05 00:29:01;;;;;;;3.33;3.10;;;9.20;99.90;;;;;;4903609;23;20507;-82
2022/04/05 00:31:49;;;;;;;;;;;;;;;;;;;;;
2022/04/05 00:35:01;;;;;;;3.47;3.20;;;9.30;99.90;;;;;;4900689;29;20471;-82
2022/04/05 00:38:31;;;;;;;3.80;3.50;;;9.20;99.90;;;;;;4879949;29;20487;-83
2022/04/05 00:55:27;;;;;;;5.20;4.80;;;9.30;99.90;;;;;;4905252;29;20842;-83
2022/04/05 00:59:06;;;;;;;5.20;4.80;;;9.30;99.90;;;;;;4886330;29;20479;-82
2022/04/05 01:13:21;;;;;;;4.87;4.30;;;9.30;99.90;;;;;;4835672;29;20547;-83
2022/04/05 01:16:53;;;;;;;6.00;5.50;;;9.30;99.90;;;;;;4780324;29;20576;-82
2022/04/05 01:20:14;;;;;;;;;;;;;;;;;;;;;
2022/04/05 01:35:10;;;;;;;6.43;5.93;;;9.40;99.90;;;;;;4890835;29;21135;-83
2022/04/05 01:42:12;;;;;;;7.33;6.67;;;9.40;99.90;;;;;;4859488;29;20569;-81
2022/04/05 01:45:36;;;;;;;;;;;;;;;;;;;;;
2022/04/05 01:52:05;;;;;;;6.70;6.10;;;9.40;99.90;;;;;;4916950;29;20458;-82
2022/04/05 01:55:44;;;;;;;;;;;;;;;;;;;;;
2022/04/05 02:18:24;;;;;;;8.20;7.50;;;9.60;99.90;;;;;;1200104;27;20801;-84
2022/04/05 02:21:35;;;;;;;7.67;6.87;;;9.70;99.90;;;;;;4858480;29;20508;-83
2022/04/05 02:35:45;;;;;;;7.10;6.50;;;9.80;99.90;;;;;;4935536;29;21733;-83
2022/04/05 02:38:59;;;;;;;;;;;;;;;;;;;;;
2022/04/05 02:41:53;;;;;;;6.93;6.30;;;9.80;99.90;;;;;;4794900;29;20479;-84
2022/04/05 02:45:11;;;;;;;;;;;;;;;;;;;;;
2022/04/05 02:48:19;;;;;;;7.10;6.40;;;9.80;99.90;;;;;;4732077;30;21192;-84
2022/04/05 02:51:40;;;;;;;6.20;5.57;;;9.90;99.90;;;;;;4742689;30;20482;-84
2022/04/05 02:55:07;;;;;;;6.00;5.50;;;9.90;99.90;;;;;;4725545;30;20483;-84
2022/04/05 02:58:11;;;;;;;5.70;5.23;;;9.80;99.90;;;;;;4726399;30;21124;-83
2022/04/05 03:02:35;;;;;;;;;;;;;;;;;;;;;
2022/04/05 03:04:55;;;;;;;5.90;5.40;;;9.90;99.90;;;;;;4753859;29;21084;-81
2022/04/05 03:08:30;;;;;;;6.23;5.63;;;10.00;99.90;;;;;;4740540;30;20467;-83
2022/04/05 03:12:08;;;;;;;8.03;6.97;;;10.00;99.90;;;;;;4706168;30;20491;-84
2022/04/05 03:30:09;;;;;;;;;;;;;;;;;;;;;
2022/04/05 03:33:54;;;;;;;6.27;5.77;;;10.10;99.90;;;;;;4942801;28;20543;-83
2022/04/05 03:55:35;;;;;;;6.10;5.60;;;10.20;99.90;;;;;;4777875;29;20475;-84
2022/04/05 04:53:07;;;;;;;;;;;;;;;;;;;;;
2022/04/05 05:00:41;;;;;;;9.40;8.50;;;10.40;99.90;;;;;;4869959;29;20518;-84
2022/04/05 05:04:20;;;;;;;11.00;9.90;;;10.40;99.90;;;;;;4804382;29;20906;-83
2022/04/05 05:11:52;;;;;;;10.37;9.27;;;10.50;99.90;;;;;;4736069;29;20525;-84
2022/04/05 05:15:30;;;;;;;12.20;11.00;;;10.50;99.90;;;;;;4713598;30;20543;-84
2022/04/05 05:24:12;;;;;;;11.63;10.13;;;10.60;99.90;;;;;;4908621;29;20491;-82
2022/04/05 05:27:08;;;;;;;10.03;9.03;;;10.60;99.90;;;;;;4865788;29;22450;-84
2022/04/05 05:34:18;;;;;;;;;;;;;;;;;;;;;
2022/04/05 05:37:56;;;;;;;;;;;;;;;;;;;;;
2022/04/05 05:44:50;;;;;;;10.80;9.80;;;10.60;99.90;;;;;;4824921;29;22524;-85
2022/04/05 06:06:44;;;;;;;9.60;8.70;;;10.70;99.90;;;;;;4853911;23;20502;-84
2022/04/05 06:18:42;;;;;;;13.60;12.13;;;10.70;99.90;;;;;;4799460;29;20588;-83
2022/04/05 06:28:55;;;;;;;11.57;9.90;;;10.90;99.90;;;;;;4976722;23;21118;-84
2022/04/05 06:58:54;;;;;;;;;;;;;;;;;;;;;
2022/04/05 07:06:05;;;;;;;14.57;9.30;;;10.90;99.90;;;;;;4837449;29;20466;-83
2022/04/05 07:13:03;;;;;;;9.47;8.47;;;11.00;99.90;;;;;;4679377;30;20521;-83
2022/04/05 07:24:01;;;;;;;;;;;;;;;;;;;;;
2022/04/05 07:27:35;;;;;;;9.30;7.67;;;11.00;99.90;;;;;;4682751;30;20493;-84
2022/04/05 07:45:11;;;;;;;7.40;6.70;;;11.10;99.90;;;;;;4664946;30;20499;-84
2022/04/05 07:52:28;;;;;;;7.03;6.33;;;11.10;99.90;;;;;;4724263;30;20464;-85
2022/04/05 07:56:37;;;;;;;;;;;;;;;;;;;;;
2022/04/05 08:00:22;;;;;;;;;;;;;;;;;;;;;
2022/04/05 08:10:06;;;;;;;5.70;5.20;;;11.20;99.90;;;;;;5086266;23;20928;-84
2022/04/05 08:16:30;;;;;;;5.67;5.17;;;11.20;99.90;;;;;;4888275;29;20482;-82
2022/04/05 08:19:37;;;;;;;5.27;4.87;;;11.20;99.90;;;;;;4895013;29;20471;-83
2022/04/05 08:22:35;;;;;;;6.10;5.50;;;11.20;99.90;;;;;;4885970;29;20467;-83
2022/04/05 08:25:28;;;;;;;5.67;5.17;;;11.20;99.90;;;;;;4891206;29;20463;-83
2022/04/05 08:28:37;;;;;;;5.93;5.43;;;11.30;99.90;;;;;;4895886;29;20456;-82
2022/04/05 08:31:29;;;;;;;7.70;7.00;;;11.30;99.90;;;;;;4885951;29;20809;-83
2022/04/05 08:34:11;;;;;;;7.10;6.40;;;11.30;99.90;;;;;;4885205;29;20855;-84
2022/04/05 08:36:58;;;;;;;8.23;7.10;;;11.40;99.90;;;;;;4895805;29;20471;-82
2022/04/05 08:39:57;;;;;;;7.03;6.43;;;11.40;99.90;;;;;;4817054;29;22341;-85
2022/04/05 08:42:42;;;;;;;8.83;8.03;;;11.40;99.90;;;;;;4814728;29;20521;-83
2022/04/05 08:45:17;;;;;;;7.50;6.80;;;11.50;99.90;;;;;;4813867;29;20509;-82
2022/04/05 08:47:53;;;;;;;8.23;7.53;;;11.50;99.90;;;;;;4817534;29;20534;-84
2022/04/05 08:50:55;;;;;;;10.70;9.60;;;11.60;99.90;;;;;;4834601;29;20481;-83
2022/04/05 08:53:35;;;;;;;9.50;8.50;;;11.60;99.90;;;;;;4820463;29;20984;-81
2022/04/05 08:56:17;;;;;;;9.17;8.33;;;11.70;99.90;;;;;;4813241;29;20493;-84
2022/04/05 08:58:55;;;;;;;9.80;8.90;;;11.70;99.90;;;;;;4819393;29;20490;-84
2022/04/05 09:01:52;;;;;;;9.67;8.77;;;11.70;99.90;;;;;;4818493;29;20467;-84
2022/04/05 09:04:40;;;;;;;9.73;8.83;;;11.80;99.90;;;;;;4863734;29;21128;-82
2022/04/05 09:07:43;;;;;;;11.90;10.80;;;12.00;99.90;;;;;;4901970;29;20563;-83
2022/04/05 09:10:47;;;;;;;11.03;9.93;;;12.20;99.90;;;;;;4905911;29;20758;-84
2022/04/05 09:14:16;;;;;;;;;;;;;;;;;;;;;
2022/04/05 09:17:43;;;;;;;11.13;9.93;;;12.30;99.90;;;;;;4922029;23;20609;-84
2022/04/05 09:20:55;;;;;;;11.83;10.27;;;12.30;99.90;;;;;;4907048;29;20567;-84
2022/04/05 09:23:45;;;;;;;11.07;10.10;;;12.30;99.90;;;;;;4913021;29;20843;-83
2022/04/05 09:27:15;;;;;;;11.40;10.20;;;12.30;99.90;;;;;;4908402;29;20531;-83
2022/04/05 09:30:41;;;;;;;;;;;;;;;;;;;;;
2022/04/05 09:33:17;;;;;;;12.17;11.03;;;12.20;99.90;;;;;;4909881;29;20455;-84
2022/04/05 09:36:14;;;;;;;12.77;10.67;;;12.10;99.90;;;;;;4912080;29;21048;-85
2022/04/05 09:38:48;;;;;;;11.00;9.97;;;12.10;99.90;;;;;;4911130;29;20618;-83
2022/04/05 09:41:44;;;;;;;11.23;9.43;;;12.20;99.90;;;;;;4916005;29;20466;-83
2022/04/05 09:45:19;;;;;;;12.03;10.87;;;12.20;99.90;;;;;;4925128;29;20542;-83
2022/04/05 09:48:14;;;;;;;11.57;10.43;;;12.20;99.90;;;;;;4930401;29;20478;-82
2022/04/05 09:51:37;;;;;;;;;;;;;;;;;;;;;
2022/04/05 09:58:09;;;;;;;11.10;10.10;;;12.20;99.90;;;;;;4876194;29;20541;-82
2022/04/05 10:01:16;;;;;;;11.40;10.20;;;12.20;99.90;;;;;;4898400;29;20463;-82
2022/04/05 10:04:38;;;;;;;10.37;9.37;;;12.20;99.90;;;;;;4933373;29;20827;-80
2022/04/05 10:08:01;;;;;;;;;;;;;;;;;;;;;
2022/04/05 10:10:43;;;;;;;10.53;9.63;;;12.20;99.90;;;;;;4925148;28;21348;-83
2022/04/05 10:13:55;;;;;;;10.00;9.10;;;12.20;99.90;;;;;;4933313;29;20441;-83
2022/04/05 10:16:48;;;;;;;9.67;8.77;;;12.30;99.90;;;;;;4931169;29;20486;-84
2022/04/05 10:19:48;;;;;;;;;;;;;;;;;;;;;
2022/04/05 10:23:10;;;;;;;9.47;8.57;;;12.30;99.90;;;;;;4928142;28;20458;-81
2022/04/05 10:26:32;;;;;;;8.53;7.73;;;12.40;99.90;;;;;;4915075;29;20558;-86
2022/04/05 10:33:10;;;;;;;8.07;7.30;;;12.60;99.90;;;;;;4919486;29;20462;-83
2022/04/05 10:36:03;;;;;;;9.53;7.60;;;12.60;99.90;;;;;;4913222;29;20565;-84
2022/04/05 10:39:25;;;;;;;8.30;7.47;;;12.70;99.90;;;;;;4865703;29;20479;-84
2022/04/05 10:42:20;;;;;;;6.90;6.30;;;12.70;99.90;;;;;;4876768;29;20500;-84
2022/04/05 10:45:48;;;;;;;7.47;6.77;;;12.80;99.90;;;;;;4866794;29;20495;-83
2022/04/05 10:49:03;;;;;;;7.10;6.40;;;13.00;99.90;;;;;;4872217;29;20479;-84
2022/04/05 10:52:23;;;;;;;7.57;6.87;;;13.20;99.90;;;;;;4873538;29;20464;-83
2022/04/05 10:55:53;;;;;;;7.30;6.70;;;13.30;99.90;;;;;;4873256;29;20486;-83
2022/04/05 10:59:10;;;;;;;6.90;6.30;;;13.30;99.90;;;;;;4859004;29;20783;-84
2022/04/05 11:02:17;;;;;;;6.60;6.03;;;13.40;99.90;;;;;;4872628;29;20484;-82
2022/04/05 11:08:43;;;;;;;7.80;7.17;;;13.20;99.90;;;;;;4922118;29;20542;-84
2022/04/05 11:11:40;;;;;;;7.90;7.10;;;13.10;99.90;;;;;;4931385;29;20604;-83
2022/04/05 11:15:01;;;;;;;7.93;7.07;;;13.10;99.90;;;;;;4925887;29;20489;-83
2022/04/05 11:18:05;;;;;;;8.23;7.53;;;13.10;99.90;;;;;;4900108;29;20470;-84
2022/04/05 11:21:11;;;;;;;;;;;;;;;;;;;;;
2022/04/05 11:24:00;;;;;;;7.83;7.13;;;13.10;99.90;;;;;;4931792;29;20578;-82
2022/04/05 11:27:19;;;;;;;9.90;7.47;;;13.10;99.90;;;;;;4964489;28;20480;-82
2022/04/05 11:31:08;;;;;;;8.53;7.63;;;13.20;99.90;;;;;;4940096;28;20461;-84
2022/04/05 11:34:06;;;;;;;8.50;7.70;;;13.20;99.90;;;;;;4937234;28;20448;-82
2022/04/05 11:37:13;;;;;;;7.90;7.30;;;13.20;99.90;;;;;;4986745;23;20529;-85
2022/04/05 11:40:20;;;;;;;7.50;6.80;;;13.20;99.90;;;;;;4921217;29;20473;-85
2022/04/05 11:43:25;;;;;;;;;;;;;;;;;;;;;
2022/04/05 11:46:27;;;;;;;7.27;6.67;;;13.40;99.90;;;;;;4912830;29;20484;-83
2022/04/05 11:53:44;;;;;;;7.30;6.60;;;13.40;99.90;;;;;;4834809;29;20655;-83
2022/04/05 12:00:16;;;;;;;6.53;5.90;;;13.50;99.90;;;;;;4834259;29;20450;-85
2022/04/05 12:03:24;;;;;;;6.43;5.83;;;13.40;99.90;;;;;;4818372;29;20466;-83
2022/04/05 12:06:34;;;;;;;;;;;;;;;;;;;;;
2022/04/05 12:09:36;;;;;;;6.67;6.07;;;13.30;99.90;;;;;;4847126;29;20465;-84
2022/04/05 12:12:29;;;;;;;6.40;5.80;;;13.20;99.90;;;;;;4833858;29;20630;-86
2022/04/05 12:15:41;;;;;;;6.87;5.13;;;13.10;99.90;;;;;;4830057;29;20454;-83
2022/04/05 12:18:27;;;;;;;6.33;5.73;;;13.10;99.90;;;;;;4848923;29;20529;-83
2022/04/05 12:21:40;;;;;;;5.77;4.90;;;13.10;99.90;;;;;;4834367;29;20477;-83
2022/04/05 12:25:01;;;;;;;5.97;5.47;;;13.20;99.90;;;;;;4844981;29;20478;-84
2022/04/05 12:28:24;;;;;;;6.40;5.83;;;13.10;99.90;;;;;;4835398;29;20970;-82
2022/04/05 12:31:30;;;;;;;;;;;;;;;;;;;;;
2022/04/05 12:34:29;;;;;;;6.80;6.20;;;13.10;99.90;;;;;;4900580;29;20478;-83
2022/04/05 12:37:29;;;;;;;7.40;6.03;;;13.10;99.90;;;;;;4888261;29;20510;-85
2022/04/05 12:43:27;;;;;;;7.67;5.90;;;13.20;99.90;;;;;;4885292;29;20462;-85
2022/04/05 12:46:31;;;;;;;6.60;6.10;;;13.20;99.90;;;;;;4894227;29;20943;-84
2022/04/05 12:49:37;;;;;;;6.17;5.67;;;13.20;99.90;;;;;;4861425;29;20459;-84
2022/04/05 12:52:13;;;;;;;8.00;6.40;;;13.20;99.90;;;;;;4893937;29;20471;-85
2022/04/05 12:55:15;;;;;;;7.50;6.80;;;13.20;99.90;;;;;;4896267;29;20538;-84
2022/04/05 12:57:55;;;;;;;6.70;6.00;;;13.20;99.90;;;;;;4902453;29;20482;-85
2022/04/05 13:00:58;;;;;;;6.13;5.60;;;13.20;99.90;;;;;;4888290;29;20471;-82
2022/04/05 13:03:45;;;;;;;6.57;6.07;;;13.30;99.90;;;;;;4903885;29;20455;-84
2022/04/05 13:07:11;;;;;;;5.87;5.37;;;13.40;99.90;;;;;;4898197;29;20490;-85
2022/04/05 13:10:20;;;;;;;5.57;5.00;;;13.50;99.90;;;;;;4880368;29;20472;-85
2022/04/05 13:13:25;;;;;;;;;;;;;;;;;;;;;
2022/04/05 13:20:03;;;;;;;6.13;5.63;;;13.20;99.90;;;;;;4829760;29;20465;-85
2022/04/05 13:23:22;;;;;;;6.43;5.93;;;13.10;99.90;;;;;;4876992;29;20459;-86
2022/04/05 13:26:27;;;;;;;6.63;6.03;;;13.10;99.90;;;;;;4891619;29;20501;-85
2022/04/05 13:29:33;;;;;;;6.70;6.10;;;13.10;99.90;;;;;;4813232;29;20468;-85
2022/04/05 13:36:51;;;;;;;;;;;;;;;;;;;;;
2022/04/05 13:44:00;;;;;;;6.93;6.23;;;13.40;99.90;;;;;;4737077;29;20449;-85
2022/04/05 13:47:17;;;;;;;5.93;5.40;;;13.50;99.90;;;;;;4708131;30;20498;-85
2022/04/05 13:50:41;;;;;;;6.50;5.90;;;13.60;99.90;;;;;;4724032;30;20500;-86
2022/04/05 13:53:53;;;;;;;5.57;5.07;;;13.50;99.90;;;;;;4716770;30;20464;-85
2022/04/05 13:56:44;;;;;;;5.73;5.03;;;13.50;99.90;;;;;;4800985;23;20578;-83
2022/04/05 13:59:34;;;;;;;6.13;5.63;;;13.60;99.90;;;;;;4906350;29;21094;-83
2022/04/05 14:02:17;;;;;;;5.87;5.40;;;13.70;99.90;;;;;;4902830;29;20458;-84
2022/04/05 14:04:56;;;;;;;6.07;5.50;;;13.70;99.90;;;;;;4901858;29;20555;-85
2022/04/05 14:07:57;;;;;;;6.63;6.03;;;13.70;99.90;;;;;;4880960;29;20480;-84
2022/04/05 14:11:03;;;;;;;6.03;5.40;;;13.60;99.90;;;;;;4892508;29;20555;-84
2022/04/05 14:14:03;;;;;;;5.80;5.40;;;13.60;99.90;;;;;;4887234;29;20475;-86
2022/04/05 14:16:36;;;;;;;6.93;5.73;;;13.60;99.90;;;;;;4888741;29;20483;-85
2022/04/05 14:19:20;;;;;;;6.43;5.93;;;13.50;99.90;;;;;;4888799;29;20556;-85
2022/04/05 14:21:57;;;;;;;6.40;5.37;;;13.50;99.90;;;;;;4890057;29;20457;-85
2022/04/05 14:24:44;;;;;;;6.40;5.90;;;13.40;99.90;;;;;;4886045;29;20537;-87
2022/04/05 14:27:26;;;;;;;6.27;5.77;;;13.40;99.90;;;;;;4882816;29;20517;-83
2022/04/05 14:30:20;;;;;;;7.17;6.47;;;13.30;99.90;;;;;;4888888;29;20471;-86
2022/04/05 14:48:31;;;;;;;6.50;5.90;;;13.10;99.90;;;;;;5144965;23;20549;-86
2022/04/05 14:56:30;;;;;;;;;;;;;;;;;;;;;
2022/04/05 15:11:53;;;;;;;;;;;;;;;;;;;;;
2022/04/05 15:19:36;;;;;;;5.80;5.30;;;13.50;99.90;;;;;;4867924;29;20463;-84
2022/04/05 15:27:07;;;;;;;5.77;5.10;;;13.40;99.90;;;;;;4841899;29;20552;-86
2022/04/05 15:34:29;;;;;;;5.50;5.10;;;13.30;99.90;;;;;;4860507;29;20545;-85
2022/04/05 15:42:04;;;;;;;5.70;5.20;;;13.30;99.90;;;;;;4854086;29;20453;-85
2022/04/05 15:49:24;;;;;;;;;;;;;;;;;;;;;
2022/04/05 16:04:04;;;;;;;7.20;5.33;;;13.40;99.90;;;;;;4901957;29;20515;-81
2022/04/05 16:08:04;;;;;;;;;;;;;;;;;;;;;
2022/04/05 16:12:01;;;;;;;4.70;4.30;;;13.50;99.90;;;;;;4793374;29;20691;-85
2022/04/05 16:23:18;;;;;;;4.80;4.40;;;13.50;99.90;;;;;;4803081;29;20525;-84
2022/04/05 16:26:51;;;;;;;4.43;4.03;;;13.40;99.90;;;;;;4767965;29;20513;-83
2022/04/05 16:30:19;;;;;;;4.90;4.40;;;13.40;99.90;;;;;;4743456;30;20464;-83
2022/04/05 16:33:57;;;;;;;4.23;3.80;;;13.40;99.90;;;;;;4746571;30;20519;-85
2022/04/05 16:59:34;;;;;;;;;;;;;;;;;;;;;
2022/04/05 17:13:14;;;;;;;;;;;;;;;;;;;;;
2022/04/05 20:09:23;;;;;;;;;;;;;;;;;;;;;
2022/04/05 20:32:24;;;;;;;7.10;4.17;;;12.70;99.90;;;;;;4712902;30;20476;-87
2022/04/05 20:36:18;;;;;;;6.30;4.03;;;12.60;99.90;;;;;;4656040;30;20503;-84
2022/04/05 20:42:17;;;;;;;7.77;4.13;;;12.70;99.90;;;;;;4715635;30;20462;-83
2022/04/05 20:45:26;;;;;;;7.13;4.13;;;12.60;99.90;;;;;;4733919;30;20548;-83
2022/04/05 20:48:10;;;;;;;7.00;3.83;;;12.60;99.90;;;;;;4724104;30;20454;-83
2022/04/05 20:50:36;;;;;;;6.30;3.50;;;12.60;99.90;;;;;;4749825;30;20885;-85
2022/04/05 20:53:03;;;;;;;7.10;4.10;;;12.50;99.90;;;;;;4750826;30;20466;-83
2022/04/05 20:55:32;;;;;;;6.90;3.90;;;12.50;99.90;;;;;;4751227;30;20470;-84
2022/04/05 20:58:03;;;;;;;7.37;4.00;;;12.50;99.90;;;;;;4747559;30;20482;-84
2022/04/05 21:01:00;;;;;;;5.70;3.63;;;12.50;99.90;;;;;;4767129;30;20521;-83
2022/04/05 21:03:30;;;;;;;6.80;3.80;;;12.50;99.90;;;;;;4771582;30;20466;-83
2022/04/05 21:06:00;;;;;;;5.90;4.57;;;12.50;99.90;;;;;;4847617;29;22086;-83
2022/04/05 21:08:49;;;;;;;6.10;4.30;;;12.60;99.90;;;;;;4876082;29;20487;-84
2022/04/05 21:11:21;;;;;;;5.63;4.00;;;12.50;99.90;;;;;;4891363;29;20811;-83
2022/04/05 21:14:07;;;;;;;8.43;4.00;;;12.50;99.90;;;;;;4878067;29;20459;-83
2022/04/05 21:16:43;;;;;;;9.90;4.20;;;12.50;99.90;;;;;;4877741;29;20484;-83
2022/04/05 21:19:19;;;;;;;9.70;4.10;;;12.50;99.90;;;;;;4873770;29;20468;-83
2022/04/05 21:22:12;;;;;;;6.53;4.00;;;12.50;99.90;;;;;;4875110;29;20460;-83
2022/04/05 21:24:51;;;;;;;9.13;4.13;;;12.50;99.90;;;;;;4874630;29;20524;-83
2022/04/05 21:27:42;;;;;;;6.20;4.30;;;12.40;99.90;;;;;;4874167;29;20528;-84
2022/04/05 21:30:33;;;;;;;10.37;4.53;;;12.40;99.90;;;;;;4881593;29;20480;-84
2022/04/05 21:33:12;;;;;;;11.60;5.00;;;12.40;99.90;;;;;;4876812;29;20573;-84
2022/04/05 21:36:02;;;;;;;7.20;3.90;;;12.40;99.90;;;;;;4874525;29;20531;-83
2022/04/05 21:38:31;;;;;;;9.03;3.70;;;12.30;99.90;;;;;;4875978;29;20457;-83
2022/04/05 21:41:16;;;;;;;8.23;4.27;;;12.30;99.90;;;;;;4872883;29;20970;-84
2022/04/05 21:43:58;;;;;;;;;;;;;;;;;;;;;
2022/04/05 21:46:48;;;;;;;6.13;3.70;;;12.20;99.90;;;;;;4876042;29;21062;-84
2022/04/05 21:49:35;;;;;;;9.17;3.70;;;12.20;99.80;;;;;;4886051;29;21232;-85
2022/04/05 21:52:16;;;;;;;9.50;3.73;;;12.20;99.90;;;;;;4877705;29;20887;-85
2022/04/05 21:55:09;;;;;;;14.30;4.50;;;12.20;99.90;;;;;;4876973;29;20460;-84
2022/04/05 21:57:58;;;;;;;7.27;4.17;;;12.10;99.90;;;;;;4875565;29;20944;-82
2022/04/05 22:00:45;;;;;;;10.30;3.77;;;12.20;99.90;;;;;;4863446;29;20543;-83
2022/04/05 22:03:12;;;;;;;7.57;4.07;;;12.20;99.90;;;;;;4884178;29;20468;-80
2022/04/05 22:05:39;;;;;;;7.67;4.33;;;12.10;99.90;;;;;;4887011;29;20495;-82
2022/04/05 22:08:06;;;;;;;5.10;3.73;;;12.10;99.90;;;;;;4878735;29;20548;-82
2022/04/05 22:10:34;;;;;;;10.13;4.07;;;12.10;99.90;;;;;;4890062;29;20479;-83
2022/04/05 22:13:02;;;;;;;13.10;4.97;;;12.10;99.90;;;;;;4869731;29;20637;-84
2022/04/05 22:15:30;;;;;;;8.63;4.47;;;12.10;99.90;;;;;;4872852;29;20477;-87
2022/04/05 22:17:57;;;;;;;8.67;4.10;;;12.10;99.90;;;;;;4876160;29;20495;-85
2022/04/05 22:20:24;;;;;;;7.90;3.50;;;12.10;99.90;;;;;;4874891;29;20511;-86
2022/04/05 22:22:52;;;;;;;7.97;4.20;;;12.10;99.90;;;;;;4889378;29;20501;-85
2022/04/05 22:25:19;;;;;;;7.67;3.70;;;12.10;99.90;;;;;;4888424;29;20495;-84
2022/04/05 22:27:47;;;;;;;7.40;3.50;;;12.10;99.90;;;;;;4892574;29;20492;-85
2022/04/05 22:30:14;;;;;;;6.43;3.70;;;12.10;99.90;;;;;;4875801;29;20491;-83
2022/04/05 22:32:41;;;;;;;8.90;4.37;;;12.10;99.90;;;;;;4901588;29;20465;-84
2022/04/05 22:35:09;;;;;;;12.57;4.80;;;12.10;99.90;;;;;;4879995;29;20460;-84
2022/04/05 22:37:37;;;;;;;9.80;4.73;;;12.10;99.90;;;;;;4883230;29;20837;-85
2022/04/05 22:40:09;;;;;;;8.17;4.30;;;12.10;99.90;;;;;;4883515;29;20595;-86
2022/04/05 22:42:37;;;;;;;9.77;5.23;;;12.10;99.90;;;;;;4884205;29;20457;-85
2022/04/05 22:45:12;;;;;;;10.63;5.00;;;12.10;99.90;;;;;;4879504;29;20485;-86
2022/04/05 22:47:44;;;;;;;7.40;3.97;;;12.10;99.90;;;;;;4881264;29;20515;-83
2022/04/05 22:50:11;;;;;;;11.20;4.83;;;12.10;99.90;;;;;;4881074;29;20878;-84
2022/04/05 22:56:19;;;;;;;8.20;4.50;;;12.10;99.90;;;;;;4880585;29;21118;-85
2022/04/05 22:59:10;;;;;;;6.53;4.27;;;12.40;99.40;;;;;;4897713;29;20475;-86
2022/04/05 23:01:48;;;;;;;6.63;4.00;;;12.20;99.50;;;;;;4880774;29;20501;-84
2022/04/05 23:04:37;;;;;;;7.30;3.90;;;12.10;99.90;;;;;;4881535;29;20832;-85
2022/04/05 23:07:05;;;;;;;9.80;3.60;;;12.00;99.90;;;;;;4883402;29;20543;-84
2022/04/05 23:10:00;;;;;;;8.57;4.30;;;12.00;99.90;;;;;;4883261;29;20546;-86
2022/04/05 23:12:39;;;;;;;9.03;4.17;;;11.90;99.90;;;;;;4883616;29;20571;-87
2022/04/05 23:15:07;;;;;;;7.93;4.07;;;12.00;99.90;;;;;;4880423;29;20452;-85
2022/04/05 23:17:35;;;;;;;5.20;3.43;;;12.00;99.90;;;;;;4879771;29;21017;-86
2022/04/05 23:20:08;;;;;;;7.03;3.90;;;12.00;99.90;;;;;;4886357;29;20489;-86
2022/04/05 23:22:52;;;;;;;8.47;3.93;;;12.10;99.90;;;;;;4886753;29;20491;-86
2022/04/05 23:25:37;;;;;;;9.00;3.40;;;12.10;99.90;;;;;;4872500;29;20522;-85
2022/04/05 23:28:10;;;;;;;7.17;3.80;;;12.00;99.90;;;;;;4931763;23;20516;-86
2022/04/05 23:30:38;;;;;;;7.60;4.00;;;12.00;99.90;;;;;;4922830;29;20462;-83
2022/04/05 23:33:07;;;;;;;6.60;4.57;;;12.20;99.90;;;;;;4935874;29;20573;-85
2022/04/05 23:35:37;;;;;;;9.83;3.87;;;12.10;99.80;;;;;;4924356;29;20466;-83
2022/04/05 23:38:10;;;;;;;4.80;3.30;;;12.20;99.40;;;;;;4915145;29;20467;-86
2022/04/05 23:40:37;;;;;;;7.13;3.70;;;12.10;99.50;;;;;;4897616;29;20488;-83
2022/04/05 23:43:04;;;;;;;5.80;3.57;;;12.20;99.10;;;;;;4919059;29;20551;-84
2022/04/05 23:45:31;;;;;;;5.77;3.40;;;12.10;99.10;;;;;;4919090;29;20603;-84
2022/04/05 23:47:58;;;;;;;7.70;3.83;;;12.20;98.80;;;;;;4897581;29;20479;-84
2022/04/05 23:50:49;;;;;;;4.20;3.20;;;12.10;98.90;;;;;;4916797;29;20653;-84
2022/04/05 23:53:31;;;;;;;4.97;3.27;;;11.90;99.10;;;;;;4887162;29;20524;-84
2022/04/05 23:56:11;;;;;;;9.30;3.50;;;11.90;99.10;;;;;;4895161;29;20583;-83
2022/04/05 23:58:38;;;;;;;6.80;3.30;;;11.80;99.40;;;;;;4900761;29;20490;-84
